Time;durP1;ratioP1;P1;durP2;ratioP2;P2;SDS_P1;SDS_P2;PMS_P1;PMS_P2;Temp;Humidity;BMP_temperature;BMP_pressure;BME280_temperature;BME280_humidity;BME280_pressure;Samples;Min_cycle;Max_cycle;Signal;HPM_P1;HPM_P2
2023/08/11 00:01:07;;;;;;;;;;;20.00;99.90;;;;;;5027904;28;20277;-90
2023/08/11 00:03:34;;;;;;;;;;;20.00;99.90;;;;;;4999478;28;20281;-90
2023/08/11 00:05:59;;;;;;;;;;;19.90;99.90;;;;;;4999519;28;19917;-90
2023/08/11 00:08:25;;;;;;;;;;;19.90;99.90;;;;;;4999475;28;19918;-90
2023/08/11 00:10:52;;;;;;;;;;;19.90;99.90;;;;;;5001550;28;20284;-90
2023/08/11 00:13:17;;;;;;;;;;;19.80;99.90;;;;;;5019042;28;19913;-91
2023/08/11 00:15:43;;;;;;;;;;;19.80;99.90;;;;;;5002871;28;19921;-88
2023/08/11 00:18:09;;;;;;;;;;;19.80;99.90;;;;;;5016411;28;19917;-90
2023/08/11 00:20:35;;;;;;;;;;;19.80;99.90;;;;;;4999655;28;20388;-90
2023/08/11 00:23:00;;;;;;;;;;;19.80;99.90;;;;;;5000303;28;19913;-89
2023/08/11 00:25:26;;;;;;;;;;;19.70;99.90;;;;;;5001415;28;19909;-89
2023/08/11 00:27:51;;;;;;;;;;;19.70;99.90;;;;;;5028607;28;19912;-89
2023/08/11 00:30:18;;;;;;;;;;;19.70;99.90;;;;;;5030615;28;19929;-90
2023/08/11 00:32:45;;;;;;;;;;;19.70;99.90;;;;;;5021023;28;19920;-90
2023/08/11 00:35:11;;;;;;;;;;;19.60;99.90;;;;;;5015049;28;19952;-90
2023/08/11 00:37:36;;;;;;;;;;;19.60;99.90;;;;;;5021788;28;19930;-90
2023/08/11 00:40:04;;;;;;;;;;;19.60;99.90;;;;;;5034418;28;19924;-88
2023/08/11 00:42:29;;;;;;;;;;;19.60;99.90;;;;;;4999793;28;19965;-88
2023/08/11 00:44:58;;;;;;;;;;;19.60;99.90;;;;;;5015635;28;19913;-91
2023/08/11 00:47:23;;;;;;;;;;;19.60;99.90;;;;;;4998923;28;19917;-90
2023/08/11 00:49:49;;;;;;;;;;;19.50;99.90;;;;;;4998690;28;19921;-90
2023/08/11 00:52:17;;;;;;;;;;;19.50;99.90;;;;;;4998355;28;22655;-90
2023/08/11 00:54:43;;;;;;;;;;;19.50;99.90;;;;;;4998216;28;19909;-90
2023/08/11 00:57:08;;;;;;;;;;;19.50;99.90;;;;;;5014747;28;19968;-90
2023/08/11 00:59:34;;;;;;;;;;;19.50;99.90;;;;;;4998428;28;19914;-90
2023/08/11 01:02:03;;;;;;;;;;;19.40;99.90;;;;;;4998440;28;19914;-92
2023/08/11 01:04:29;;;;;;;;;;;19.40;99.90;;;;;;5015158;28;19921;-90
2023/08/11 01:07:01;;;;;;;;;;;19.40;99.90;;;;;;4998130;28;20288;-90
2023/08/11 01:09:35;;;;;;;;;;;19.30;99.90;;;;;;5015846;28;19917;-91
2023/08/11 01:12:00;;;;;;;;;;;19.30;99.90;;;;;;4998095;28;19914;-91
2023/08/11 01:14:26;;;;;;;;;;;19.30;99.90;;;;;;4998328;28;19916;-90
2023/08/11 01:16:52;;;;;;;;;;;19.30;99.90;;;;;;4998242;28;20272;-91
2023/08/11 01:19:24;;;;;;;;;;;19.30;99.90;;;;;;4997743;28;20000;-91
2023/08/11 01:21:51;;;;;;;;;;;19.30;99.90;;;;;;5015569;28;19909;-90
2023/08/11 01:24:17;;;;;;;;;;;19.20;99.90;;;;;;4997712;28;19996;-91
2023/08/11 01:26:43;;;;;;;;;;;19.20;99.90;;;;;;4997848;28;19914;-91
2023/08/11 01:29:09;;;;;;;;;;;19.20;99.90;;;;;;4998050;28;19952;-91
2023/08/11 01:31:34;;;;;;;;;;;19.20;99.90;;;;;;4998415;28;19925;-91
2023/08/11 01:34:00;;;;;;;;;;;19.20;99.90;;;;;;4998008;28;19920;-90
2023/08/11 01:36:25;;;;;;;;;;;19.20;99.90;;;;;;5015347;28;19910;-91
2023/08/11 01:38:51;;;;;;;;;;;19.10;99.90;;;;;;5014216;28;19925;-91
2023/08/11 01:41:16;;;;;;;;;;;19.10;99.90;;;;;;4998101;28;19913;-91
2023/08/11 01:43:42;;;;;;;;;;;19.10;99.90;;;;;;4998269;28;19913;-91
2023/08/11 01:46:08;;;;;;;;;;;19.10;99.90;;;;;;4997913;28;19913;-91
2023/08/11 01:48:34;;;;;;;;;;;19.10;99.90;;;;;;4997998;28;19924;-91
2023/08/11 01:51:00;;;;;;;;;;;19.00;99.90;;;;;;4997622;28;19920;-90
2023/08/11 01:53:26;;;;;;;;;;;19.10;99.90;;;;;;4996964;28;20020;-90
2023/08/11 01:55:52;;;;;;;;;;;19.00;99.90;;;;;;4997247;28;19949;-91
2023/08/11 01:58:18;;;;;;;;;;;19.00;99.90;;;;;;4997655;28;19960;-91
2023/08/11 02:00:43;;;;;;;;;;;19.00;99.90;;;;;;4997861;28;19913;-91
2023/08/11 02:03:09;;;;;;;;;;;19.00;99.90;;;;;;5014980;28;19909;-91
2023/08/11 02:05:34;;;;;;;;;;;19.00;99.90;;;;;;5013827;28;19917;-91
2023/08/11 02:08:02;;;;;;;;;;;19.00;99.90;;;;;;4997912;28;19921;-91
2023/08/11 02:10:28;;;;;;;;;;;19.00;99.90;;;;;;4997979;28;19933;-91
2023/08/11 02:12:54;;;;;;;;;;;19.00;99.90;;;;;;4997530;28;20016;-91
2023/08/11 02:15:19;;;;;;;;;;;19.00;99.90;;;;;;4997393;28;19909;-91
2023/08/11 02:17:48;;;;;;;;;;;18.90;99.90;;;;;;4999594;28;19914;-90
2023/08/11 02:20:23;;;;;;;;;;;18.90;99.90;;;;;;5001306;28;19917;-90
2023/08/11 02:22:49;;;;;;;;;;;18.90;99.90;;;;;;5001513;28;19936;-90
2023/08/11 02:25:15;;;;;;;;;;;18.90;99.90;;;;;;5000958;28;20357;-90
2023/08/11 02:27:40;;;;;;;;;;;18.90;99.90;;;;;;5001507;28;20411;-90
2023/08/11 02:30:10;;;;;;;;;;;18.80;99.90;;;;;;5001088;28;20008;-91
2023/08/11 02:32:37;;;;;;;;;;;18.90;99.90;;;;;;5001345;28;20368;-90
2023/08/11 02:35:03;;;;;;;;;;;18.80;99.90;;;;;;5001302;28;19909;-91
2023/08/11 02:37:29;;;;;;;;;;;18.80;99.90;;;;;;5000986;28;19914;-90
2023/08/11 02:39:55;;;;;;;;;;;18.80;99.90;;;;;;5017504;28;19917;-88
2023/08/11 02:42:20;;;;;;;;;;;18.80;99.90;;;;;;5000736;28;20065;-90
2023/08/11 02:44:46;;;;;;;;;;;18.70;99.90;;;;;;5000745;28;20241;-90
2023/08/11 02:47:11;;;;;;;;;;;18.80;99.90;;;;;;5000962;28;19914;-90
2023/08/11 02:49:37;;;;;;;;;;;18.70;99.90;;;;;;5017314;28;19918;-90
2023/08/11 02:52:02;;;;;;;;;;;18.70;99.90;;;;;;5000826;28;19917;-89
2023/08/11 02:54:29;;;;;;;;;;;18.70;99.90;;;;;;5038763;28;19909;-91
2023/08/11 02:56:55;;;;;;;;;;;18.70;99.90;;;;;;5024012;28;19914;-89
2023/08/11 02:59:20;;;;;;;;;;;18.60;99.90;;;;;;5000610;28;20270;-90
2023/08/11 03:01:46;;;;;;;;;;;18.70;99.90;;;;;;5000462;28;19952;-90
2023/08/11 03:04:17;;;;;;;;;;;18.60;99.90;;;;;;5001004;28;20357;-92
2023/08/11 03:06:44;;;;;;;;;;;18.60;99.90;;;;;;5000354;28;19909;-89
2023/08/11 03:09:10;;;;;;;;;;;18.60;99.90;;;;;;5016679;28;19917;-90
2023/08/11 03:11:35;;;;;;;;;;;18.60;99.90;;;;;;5000131;28;20750;-89
2023/08/11 03:14:01;;;;;;;;;;;18.60;99.90;;;;;;5000418;28;19914;-89
2023/08/11 03:16:26;;;;;;;;;;;18.50;99.90;;;;;;5000195;28;19964;-90
2023/08/11 03:18:52;;;;;;;;;;;18.50;99.90;;;;;;5017758;28;20416;-89
2023/08/11 03:21:18;;;;;;;;;;;18.50;99.90;;;;;;5000074;28;19909;-90
2023/08/11 03:23:43;;;;;;;;;;;18.50;99.90;;;;;;5000074;28;19960;-90
2023/08/11 03:26:09;;;;;;;;;;;18.50;99.90;;;;;;5000211;28;20357;-89
2023/08/11 03:28:35;;;;;;;;;;;18.40;99.90;;;;;;5016251;28;19917;-89
2023/08/11 03:31:00;;;;;;;;;;;18.50;99.90;;;;;;5016659;28;19918;-89
2023/08/11 03:33:26;;;;;;;;;;;18.40;99.90;;;;;;5000085;28;19913;-89
2023/08/11 03:35:51;;;;;;;;;;;18.40;99.90;;;;;;5000234;28;19932;-90
2023/08/11 03:38:18;;;;;;;;;;;18.40;99.90;;;;;;4999880;28;20373;-89
2023/08/11 03:40:43;;;;;;;;;;;18.40;99.90;;;;;;4999919;28;19920;-90
2023/08/11 03:43:09;;;;;;;;;;;18.40;99.90;;;;;;5000170;28;19918;-89
2023/08/11 03:45:34;;;;;;;;;;;18.40;99.90;;;;;;5000222;28;19913;-89
2023/08/11 03:48:00;;;;;;;;;;;18.30;99.90;;;;;;4999960;28;19917;-90
2023/08/11 03:50:25;;;;;;;;;;;18.30;99.90;;;;;;4983773;28;19922;-90
2023/08/11 03:52:51;;;;;;;;;;;18.30;99.90;;;;;;4999997;28;19910;-89
2023/08/11 03:55:17;;;;;;;;;;;18.30;99.90;;;;;;4999980;28;19921;-90
2023/08/11 03:57:44;;;;;;;;;;;18.30;99.90;;;;;;4999880;28;19952;-90
2023/08/11 04:00:14;;;;;;;;;;;18.30;99.90;;;;;;4999998;28;19913;-90
2023/08/11 04:02:39;;;;;;;;;;;18.30;99.90;;;;;;4999934;28;19917;-90
2023/08/11 04:05:05;;;;;;;;;;;18.20;99.90;;;;;;5001503;28;19977;-89
2023/08/11 04:07:31;;;;;;;;;;;18.20;99.90;;;;;;5002908;28;20353;-91
2023/08/11 04:09:58;;;;;;;;;;;18.20;99.90;;;;;;5022998;28;19947;-90
2023/08/11 04:12:24;;;;;;;;;;;18.20;99.90;;;;;;5020872;28;19921;-93
2023/08/11 04:14:49;;;;;;;;;;;18.20;99.90;;;;;;5002593;28;19977;-89
2023/08/11 04:17:16;;;;;;;;;;;18.10;99.90;;;;;;5012075;28;19902;-89
2023/08/11 04:19:42;;;;;;;;;;;18.20;99.90;;;;;;5039236;28;19937;-89
2023/08/11 04:22:08;;;;;;;;;;;18.20;99.90;;;;;;5006746;28;19913;-89
2023/08/11 04:24:33;;;;;;;;;;;18.20;99.90;;;;;;5016985;28;19914;-90
2023/08/11 04:26:59;;;;;;;;;;;18.10;99.90;;;;;;4999955;28;19968;-91
2023/08/11 04:29:25;;;;;;;;;;;18.10;99.90;;;;;;4999100;28;20262;-87
2023/08/11 04:31:51;;;;;;;;;;;18.10;99.90;;;;;;4999777;28;20401;-87
2023/08/11 04:34:17;;;;;;;;;;;18.10;99.90;;;;;;4999137;28;19969;-88
2023/08/11 04:36:42;;;;;;;;;;;18.10;99.90;;;;;;4999015;28;19932;-87
2023/08/11 04:39:08;;;;;;;;;;;18.00;99.90;;;;;;4997854;28;20385;-87
2023/08/11 04:41:34;;;;;;;;;;;18.10;99.90;;;;;;4998634;28;20269;-89
2023/08/11 04:43:59;;;;;;;;;;;18.10;99.90;;;;;;4998592;28;19948;-89
2023/08/11 04:46:25;;;;;;;;;;;18.00;99.90;;;;;;4998284;28;19957;-88
2023/08/11 04:48:51;;;;;;;;;;;18.00;99.90;;;;;;4998262;28;19953;-88
2023/08/11 04:51:16;;;;;;;;;;;18.00;99.90;;;;;;4998228;28;20347;-90
2023/08/11 04:53:42;;;;;;;;;;;18.00;99.90;;;;;;5015868;28;19909;-87
2023/08/11 04:56:08;;;;;;;;;;;18.00;99.90;;;;;;4982094;28;20285;-87
2023/08/11 04:58:34;;;;;;;;;;;18.00;99.90;;;;;;4998191;28;19914;-88
2023/08/11 05:01:03;;;;;;;;;;;18.00;99.90;;;;;;4998700;28;19909;-88
2023/08/11 05:03:29;;;;;;;;;;;18.00;99.90;;;;;;4998250;28;19909;-87
2023/08/11 05:05:54;;;;;;;;;;;18.00;99.90;;;;;;4998105;28;19909;-88
2023/08/11 05:08:20;;;;;;;;;;;18.00;99.90;;;;;;4998119;28;19914;-85
2023/08/11 05:10:45;;;;;;;;;;;18.00;99.90;;;;;;4997795;28;20032;-83
2023/08/11 05:13:12;;;;;;;;;;;18.00;99.90;;;;;;4997196;28;20008;-83
2023/08/11 05:15:38;;;;;;;;;;;18.00;99.90;;;;;;4997192;28;19976;-83
2023/08/11 05:18:04;;;;;;;;;;;18.00;99.90;;;;;;4997071;28;19964;-83
2023/08/11 05:20:30;;;;;;;;;;;18.00;99.90;;;;;;5014354;28;19909;-84
2023/08/11 05:22:56;;;;;;;;;;;18.00;99.90;;;;;;4996708;28;19921;-82
2023/08/11 05:25:22;;;;;;;;;;;18.00;99.90;;;;;;4997346;28;19909;-88
2023/08/11 05:27:47;;;;;;;;;;;18.10;99.90;;;;;;5015733;28;19954;-88
2023/08/11 05:30:13;;;;;;;;;;;18.10;99.90;;;;;;4997700;28;19920;-88
2023/08/11 05:32:39;;;;;;;;;;;18.10;99.90;;;;;;4997970;28;19940;-89
2023/08/11 05:35:05;;;;;;;;;;;18.10;99.90;;;;;;4998033;28;20033;-88
2023/08/11 05:37:30;;;;;;;;;;;18.20;99.90;;;;;;4998024;28;19914;-88
2023/08/11 05:39:58;;;;;;;;;;;18.10;99.90;;;;;;4998010;28;19913;-88
2023/08/11 05:42:24;;;;;;;;;;;18.20;99.90;;;;;;4997975;28;19909;-88
2023/08/11 05:44:49;;;;;;;;;;;18.20;99.90;;;;;;4994105;28;20440;-88
2023/08/11 05:47:15;;;;;;;;;;;18.20;99.90;;;;;;4980004;28;19957;-87
2023/08/11 05:49:40;;;;;;;;;;;18.20;99.90;;;;;;4994326;28;19920;-89
2023/08/11 05:52:06;;;;;;;;;;;18.30;99.90;;;;;;4987128;28;19924;-88
2023/08/11 05:54:32;;;;;;;;;;;18.30;99.90;;;;;;4984778;28;19914;-89
2023/08/11 05:56:57;;;;;;;;;;;18.30;99.90;;;;;;4983828;28;19913;-90
2023/08/11 05:59:23;;;;;;;;;;;18.40;99.90;;;;;;5005858;28;19913;-90
2023/08/11 06:01:49;;;;;;;;;;;18.40;99.90;;;;;;5000544;28;19918;-89
2023/08/11 06:04:15;;;;;;;;;;;18.40;99.90;;;;;;5002165;28;19910;-90
2023/08/11 06:06:43;;;;;;;;;;;18.40;99.90;;;;;;5002067;28;20413;-89
2023/08/11 06:09:09;;;;;;;;;;;18.50;99.90;;;;;;4984461;28;20016;-89
2023/08/11 06:11:35;;;;;;;;;;;18.50;99.90;;;;;;4984718;28;20385;-90
2023/08/11 06:14:00;;;;;;;;;;;18.50;99.90;;;;;;4984697;28;20317;-90
2023/08/11 06:16:26;;;;;;;;;;;18.50;99.90;;;;;;5001641;28;19949;-89
2023/08/11 06:18:51;;;;;;;;;;;18.60;99.90;;;;;;4984148;28;19936;-89
2023/08/11 06:21:17;;;;;;;;;;;18.60;99.90;;;;;;4984036;28;19917;-89
2023/08/11 06:23:47;;;;;;;;;;;18.60;99.90;;;;;;4984634;28;19910;-90
2023/08/11 06:26:12;;;;;;;;;;;18.60;99.90;;;;;;4998765;28;20365;-90
2023/08/11 06:28:41;;;;;;;;;;;18.60;99.90;;;;;;5004380;28;19921;-89
2023/08/11 06:31:09;;;;;;;;;;;18.60;99.90;;;;;;5005068;28;19957;-90
2023/08/11 06:33:37;;;;;;;;;;;18.70;99.90;;;;;;5004353;28;19910;-92
2023/08/11 06:36:05;;;;;;;;;;;18.70;99.90;;;;;;5004213;28;19910;-91
2023/08/11 06:41:33;;;;;;;;;;;18.70;99.90;;;;;;5021628;28;19916;-90
2023/08/11 06:43:58;;;;;;;;;;;18.80;99.90;;;;;;5004128;28;19992;-91
2023/08/11 06:46:24;;;;;;;;;;;18.80;99.90;;;;;;4987760;28;19913;-90
2023/08/11 06:48:50;;;;;;;;;;;18.80;99.90;;;;;;5003526;28;19914;-89
2023/08/11 06:51:21;;;;;;;;;;;18.80;99.90;;;;;;5006956;28;19918;-95
2023/08/11 06:54:06;;;;;;;;;;;18.90;99.90;;;;;;5006578;28;20388;-96
2023/08/11 06:56:34;;;;;;;;;;;18.90;99.90;;;;;;5006876;28;19910;-96
2023/08/11 06:59:03;;;;;;;;;;;19.00;99.90;;;;;;5005856;28;20311;-96
2023/08/11 07:04:47;;;;;;;;;;;;;;;;;;;;;
2023/08/11 07:07:23;;;;;;;;;;;19.20;99.90;;;;;;5021753;28;20015;-95
2023/08/11 07:10:10;;;;;;;;;;;19.20;99.90;;;;;;5004412;28;19939;-96
2023/08/11 07:12:39;;;;;;;;;;;19.30;99.90;;;;;;5007207;28;19914;-95
2023/08/11 07:15:05;;;;;;;;;;;19.30;99.90;;;;;;5003807;28;19906;-96
2023/08/11 07:18:03;;;;;;;;;;;;;;;;;;;;;
2023/08/11 07:20:39;;;;;;;;;;;;;;;;;;;;;
2023/08/11 07:26:01;;;;;;;;;;;19.50;99.90;;;;;;4989242;28;19915;-95
2023/08/11 07:28:47;;;;;;;;;;;;;;;;;;;;;
2023/08/11 07:34:12;;;;;;;;;;;;;;;;;;;;;
2023/08/11 07:36:53;;;;;;;;;;;19.80;99.90;;;;;;5020301;28;20003;-96
2023/08/11 07:39:24;;;;;;;;;;;19.80;99.90;;;;;;5013737;28;20441;-95
2023/08/11 07:42:02;;;;;;;;;;;19.90;99.90;;;;;;5017822;28;19914;-95
2023/08/11 07:45:04;;;;;;;;;;;;;;;;;;;;;
2023/08/11 07:48:03;;;;;;;;;;;;;;;;;;;;;
2023/08/11 07:53:39;;;;;;;;;;;;;;;;;;;;;
2023/08/11 07:56:15;;;;;;;;;;;;;;;;;;;;;
2023/08/11 07:58:52;;;;;;;;;;;;;;;;;;;;;
2023/08/11 08:01:38;;;;;;;;;;;20.40;99.90;;;;;;5023175;28;19918;-96
2023/08/11 08:04:18;;;;;;;;;;;20.50;99.90;;;;;;4987135;28;19920;-96
2023/08/11 08:07:15;;;;;;;;;;;20.60;99.90;;;;;;4984139;28;19980;-96
2023/08/11 08:10:00;;;;;;;;;;;20.70;99.90;;;;;;5018100;28;19924;-95
2023/08/11 08:12:29;;;;;;;;;;;20.70;99.90;;;;;;4998522;28;19914;-95
2023/08/11 08:15:12;;;;;;;;;;;20.90;99.90;;;;;;4999635;28;20376;-95
2023/08/11 08:17:58;;;;;;;;;;;20.90;99.90;;;;;;4999474;28;19918;-96
2023/08/11 08:20:53;;;;;;;;;;;;;;;;;;;;;
2023/08/11 08:23:31;;;;;;;;;;;21.10;99.90;;;;;;5018627;28;19914;-95
2023/08/11 08:26:07;;;;;;;;;;;;;;;;;;;;;
2023/08/11 08:28:42;;;;;;;;;;;21.20;99.90;;;;;;5019525;28;20016;-96
2023/08/11 08:31:08;;;;;;;;;;;21.30;99.90;;;;;;5002352;28;19917;-96
2023/08/11 08:33:33;;;;;;;;;;;21.40;99.90;;;;;;5021945;28;19965;-87
2023/08/11 08:35:59;;;;;;;;;;;21.50;99.90;;;;;;4997609;28;19936;-85
2023/08/11 08:38:25;;;;;;;;;;;21.50;99.90;;;;;;4997550;28;20293;-86
2023/08/11 08:40:51;;;;;;;;;;;21.60;99.90;;;;;;5026629;28;20435;-90
2023/08/11 08:43:16;;;;;;;;;;;21.70;99.90;;;;;;5008099;28;19913;-84
2023/08/11 08:45:43;;;;;;;;;;;21.70;99.90;;;;;;4993622;28;19920;-84
2023/08/11 08:48:13;;;;;;;;;;;21.80;99.90;;;;;;5013583;28;19917;-87
2023/08/11 08:50:38;;;;;;;;;;;21.90;99.90;;;;;;5015174;28;19914;-84
2023/08/11 08:53:04;;;;;;;;;;;21.90;99.90;;;;;;4981057;28;19918;-84
2023/08/11 08:55:31;;;;;;;;;;;22.00;99.90;;;;;;4997268;28;20339;-83
2023/08/11 08:57:56;;;;;;;;;;;22.10;99.90;;;;;;4997015;28;19952;-85
2023/08/11 09:00:23;;;;;;;;;;;22.10;99.90;;;;;;4997148;28;20380;-82
2023/08/11 09:02:48;;;;;;;;;;;22.20;99.90;;;;;;4996802;28;19996;-82
2023/08/11 09:05:14;;;;;;;;;;;22.20;99.90;;;;;;5014610;28;19991;-82
2023/08/11 09:07:39;;;;;;;;;;;22.30;99.90;;;;;;4996894;28;20346;-82
2023/08/11 09:10:05;;;;;;;;;;;22.40;99.90;;;;;;4996503;28;20377;-82
2023/08/11 09:12:31;;;;;;;;;;;22.40;99.90;;;;;;4996835;28;20008;-81
2023/08/11 09:14:58;;;;;;;;;;;22.50;99.90;;;;;;4996863;28;20273;-82
2023/08/11 09:17:24;;;;;;;;;;;22.50;99.90;;;;;;4996465;28;19913;-81
2023/08/11 09:19:51;;;;;;;;;;;22.60;99.90;;;;;;5014369;28;19910;-82
2023/08/11 09:22:22;;;;;;;;;;;22.60;99.90;;;;;;4996142;28;19914;-82
2023/08/11 09:24:47;;;;;;;;;;;22.70;99.90;;;;;;5012897;28;20003;-82
2023/08/11 09:30:57;;;;;;;;;;;22.80;99.90;;;;;;5026025;28;20013;-95
2023/08/11 09:36:36;;;;;;;;;;;;;;;;;;;;;
2023/08/11 09:51:08;;;;;;;;;;;23.40;99.90;;;;;;4983078;28;19918;-95
2023/08/11 09:54:05;;;;;;;;;;;23.50;99.90;;;;;;4958487;28;19910;-93
2023/08/11 09:56:59;;;;;;;;;;;23.60;99.90;;;;;;4956249;28;19910;-94
2023/08/11 10:03:00;;;;;;;;;;;23.80;99.90;;;;;;4908933;29;19940;-96
2023/08/11 10:05:31;;;;;;;;;;;23.90;99.90;;;;;;4899824;29;19912;-95
2023/08/11 10:08:18;;;;;;;;;;;24.00;99.90;;;;;;4917387;29;19915;-96
2023/08/11 10:14:10;;;;;;;;;;;;;;;;;;;;;
2023/08/11 10:20:15;;;;;;;;;;;;;;;;;;;;;
2023/08/11 10:25:58;;;;;;;;;;;24.50;99.90;;;;;;4906887;29;19915;-83
2023/08/11 10:28:24;;;;;;;;;;;24.50;99.90;;;;;;4971905;28;19921;-80
2023/08/11 10:31:02;;;;;;;;;;;24.60;99.90;;;;;;4992565;28;19925;-79
2023/08/11 10:33:29;;;;;;;;;;;24.70;99.90;;;;;;4976747;28;19918;-88
2023/08/11 10:35:57;;;;;;;;;;;24.80;99.90;;;;;;4977101;28;19963;-86
2023/08/11 10:38:28;;;;;;;;;;;24.80;99.90;;;;;;4981365;28;20374;-86
2023/08/11 10:41:00;;;;;;;;;;;24.90;99.90;;;;;;5000124;28;19910;-85
2023/08/11 10:43:31;;;;;;;;;;;24.90;99.90;;;;;;4999862;28;19980;-86
2023/08/11 10:45:56;;;;;;;;;;;25.00;99.90;;;;;;4999782;28;19916;-87
2023/08/11 10:48:25;;;;;;;;;;;25.10;99.90;;;;;;4999377;28;20339;-86
2023/08/11 10:50:50;;;;;;;;;;;25.10;99.90;;;;;;5000783;28;19913;-86
2023/08/11 10:53:20;;;;;;;;;;;25.10;99.90;;;;;;5021184;28;19917;-85
2023/08/11 10:56:01;;;;;;;;;;;25.20;99.90;;;;;;4999624;28;19909;-84
2023/08/11 10:58:29;;;;;;;;;;;25.30;99.90;;;;;;5017297;28;19913;-84
2023/08/11 11:00:55;;;;;;;;;;;25.30;99.90;;;;;;4999908;28;20325;-85
2023/08/11 11:03:21;;;;;;;;;;;25.50;99.90;;;;;;5000542;28;19913;-89
2023/08/11 11:05:46;;;;;;;;;;;25.50;99.90;;;;;;4999511;28;19996;-82
2023/08/11 11:08:12;;;;;;;;;;;25.60;99.90;;;;;;5001945;28;19909;-83
2023/08/11 11:10:37;;;;;;;;;;;25.70;99.90;;;;;;5016812;28;19913;-80
2023/08/11 11:13:03;;;;;;;;;;;25.70;99.90;;;;;;4982659;28;19921;-80
2023/08/11 11:15:29;;;;;;;;;;;25.80;99.90;;;;;;4999018;28;20476;-79
2023/08/11 11:17:54;;;;;;;;;;;25.80;99.90;;;;;;4999071;28;19913;-79
2023/08/11 11:20:20;;;;;;;;;;;25.90;99.90;;;;;;4999049;28;20269;-79
2023/08/11 11:22:46;;;;;;;;;;;26.00;99.90;;;;;;5016306;28;19956;-79
2023/08/11 11:25:12;;;;;;;;;;;26.00;99.90;;;;;;4998719;28;19956;-80
2023/08/11 11:27:42;;;;;;;;;;;26.10;99.90;;;;;;4999048;28;19914;-79
2023/08/11 11:30:08;;;;;;;;;;;26.20;99.90;;;;;;4998504;28;19983;-80
2023/08/11 11:32:34;;;;;;;;;;;26.20;99.90;;;;;;4998806;28;20357;-79
2023/08/11 11:34:59;;;;;;;;;;;26.30;99.90;;;;;;5017041;28;20413;-79
2023/08/11 11:37:25;;;;;;;;;;;26.40;99.90;;;;;;5004623;28;20380;-79
2023/08/11 11:39:51;;;;;;;;;;;26.40;99.90;;;;;;4982395;28;19926;-79
2023/08/11 11:42:17;;;;;;;;;;;26.40;99.90;;;;;;5015193;28;19984;-78
2023/08/11 11:44:43;;;;;;;;;;;26.50;99.90;;;;;;5015261;28;20333;-79
2023/08/11 11:47:08;;;;;;;;;;;26.50;99.90;;;;;;5015622;28;19948;-81
2023/08/11 11:49:35;;;;;;;;;;;26.60;99.90;;;;;;4997810;28;19921;-79
2023/08/11 11:52:21;;;;;;;;;;;26.60;99.90;;;;;;5034024;28;20064;-90
2023/08/11 11:54:53;;;;;;;;;;;26.70;99.90;;;;;;4998337;28;19916;-84
2023/08/11 11:57:20;;;;;;;;;;;26.70;99.90;;;;;;4997814;28;20004;-82
2023/08/11 11:59:48;;;;;;;;;;;26.80;99.90;;;;;;5015833;28;19909;-82
2023/08/11 12:02:14;;;;;;;;;;;26.80;99.90;;;;;;4997843;28;19914;-82
2023/08/11 12:04:43;;;;;;;;;;;26.90;99.90;;;;;;5016031;28;19910;-89
2023/08/11 12:07:09;;;;;;;;;;;26.90;99.90;;;;;;5017228;28;19913;-89
2023/08/11 12:10:01;;;;;;;;;;;27.00;99.90;;;;;;4983216;28;20369;-88
2023/08/11 12:12:27;;;;;;;;;;;27.00;99.90;;;;;;4996935;28;20366;-87
2023/08/11 12:14:53;;;;;;;;;;;27.10;99.90;;;;;;5016588;28;19909;-92
2023/08/11 12:17:21;;;;;;;;;;;27.20;99.90;;;;;;5015580;28;19937;-94
2023/08/11 12:19:46;;;;;;;;;;;27.20;99.90;;;;;;5016487;28;19979;-94
2023/08/11 12:22:12;;;;;;;;;;;27.30;99.90;;;;;;4999061;28;20369;-96
2023/08/11 12:24:37;;;;;;;;;;;27.30;99.90;;;;;;4999312;28;19910;-95
2023/08/11 12:27:03;;;;;;;;;;;27.40;99.90;;;;;;4998544;28;19910;-94
2023/08/11 12:29:29;;;;;;;;;;;27.40;99.90;;;;;;4999020;28;19914;-95
2023/08/11 12:31:55;;;;;;;;;;;27.40;99.90;;;;;;4999483;28;19925;-96
2023/08/11 12:34:23;;;;;;;;;;;27.50;99.90;;;;;;4999468;28;20374;-96
2023/08/11 12:36:48;;;;;;;;;;;27.50;99.90;;;;;;4999626;28;19916;-96
2023/08/11 12:39:16;;;;;;;;;;;27.60;99.90;;;;;;4998866;28;19961;-96
2023/08/11 12:41:42;;;;;;;;;;;27.60;99.90;;;;;;4999640;28;19914;-94
2023/08/11 12:44:07;;;;;;;;;;;27.60;99.90;;;;;;4999005;28;20329;-94
2023/08/11 12:46:33;;;;;;;;;;;27.70;99.90;;;;;;4999172;28;19920;-94
2023/08/11 12:48:58;;;;;;;;;;;27.70;99.90;;;;;;4998727;28;19972;-94
2023/08/11 12:51:24;;;;;;;;;;;27.80;99.90;;;;;;4999121;28;20436;-95
2023/08/11 12:53:49;;;;;;;;;;;27.80;99.90;;;;;;4982515;28;20013;-95
2023/08/11 12:56:15;;;;;;;;;;;27.80;99.90;;;;;;4999350;28;19948;-96
2023/08/11 12:58:42;;;;;;;;;;;27.90;99.90;;;;;;4998491;28;19914;-94
2023/08/11 13:01:08;;;;;;;;;;;27.90;99.90;;;;;;5014220;28;19929;-94
2023/08/11 13:03:34;;;;;;;;;;;28.00;99.90;;;;;;4998528;28;19913;-95
2023/08/11 13:05:59;;;;;;;;;;;28.00;99.90;;;;;;4998644;28;19917;-94
2023/08/11 13:08:25;;;;;;;;;;;28.00;99.90;;;;;;4998692;28;20004;-96
2023/08/11 13:10:53;;;;;;;;;;;28.00;99.90;;;;;;4998435;28;19921;-94
2023/08/11 13:13:20;;;;;;;;;;;28.10;99.90;;;;;;5016322;28;19952;-95
2023/08/11 13:15:47;;;;;;;;;;;28.10;99.90;;;;;;5000036;28;19952;-95
2023/08/11 13:18:13;;;;;;;;;;;28.20;99.90;;;;;;4999644;28;20395;-95
2023/08/11 13:20:38;;;;;;;;;;;28.20;99.50;;;;;;4998838;28;19913;-95
2023/08/11 13:23:04;;;;;;;;;;;28.20;99.90;;;;;;4982511;28;19913;-96
2023/08/11 13:25:29;;;;;;;;;;;28.30;99.90;;;;;;4998381;28;19913;-94
2023/08/11 13:27:55;;;;;;;;;;;28.30;99.90;;;;;;4997614;28;19910;-81
2023/08/11 13:30:24;;;;;;;;;;;28.30;99.90;;;;;;4996559;28;20361;-82
2023/08/11 13:32:50;;;;;;;;;;;28.30;99.80;;;;;;4998394;28;19921;-94
2023/08/11 13:35:15;;;;;;;;;;;28.20;99.90;;;;;;4999399;28;19910;-94
2023/08/11 13:37:41;;;;;;;;;;;28.20;99.10;;;;;;4998783;28;20388;-95
2023/08/11 13:40:08;;;;;;;;;;;28.10;98.90;;;;;;4994497;28;20405;-94
2023/08/11 13:42:34;;;;;;;;;;;28.10;99.10;;;;;;4986752;28;19953;-95
2023/08/11 13:44:59;;;;;;;;;;;28.10;99.00;;;;;;5015720;28;19921;-82
2023/08/11 13:47:25;;;;;;;;;;;28.10;99.00;;;;;;5000980;28;19910;-82
2023/08/11 13:49:50;;;;;;;;;;;28.10;99.10;;;;;;5001511;28;20308;-83
2023/08/11 13:52:16;;;;;;;;;;;28.10;99.70;;;;;;5001009;28;19937;-83
2023/08/11 13:54:52;;;;;;;;;;;28.20;99.90;;;;;;4983737;28;19918;-81
2023/08/11 13:57:17;;;;;;;;;;;28.20;99.90;;;;;;5017479;28;19964;-81
2023/08/11 13:59:43;;;;;;;;;;;28.20;99.90;;;;;;4998215;28;19914;-82
2023/08/11 14:02:08;;;;;;;;;;;28.30;99.90;;;;;;4981491;28;19918;-81
2023/08/11 14:04:34;;;;;;;;;;;28.30;99.90;;;;;;4996517;28;20281;-82
2023/08/11 14:06:59;;;;;;;;;;;28.30;99.60;;;;;;5013705;28;19924;-82
2023/08/11 14:09:25;;;;;;;;;;;28.40;99.20;;;;;;4998011;28;19917;-83
2023/08/11 14:11:51;;;;;;;;;;;28.40;99.80;;;;;;5018141;28;19920;-82
2023/08/11 14:14:16;;;;;;;;;;;28.40;99.90;;;;;;5005804;28;19914;-82
2023/08/11 14:16:42;;;;;;;;;;;28.50;99.90;;;;;;5020912;28;19917;-82
2023/08/11 14:19:07;;;;;;;;;;;28.50;99.90;;;;;;5020689;28;19910;-82
2023/08/11 14:21:33;;;;;;;;;;;28.50;99.30;;;;;;5020643;28;19909;-83
2023/08/11 14:23:59;;;;;;;;;;;28.50;99.90;;;;;;5021938;28;19909;-81
2023/08/11 14:26:24;;;;;;;;;;;28.60;99.90;;;;;;5003726;28;19916;-87
2023/08/11 14:28:50;;;;;;;;;;;28.60;99.90;;;;;;5020957;28;19913;-81
2023/08/11 14:31:15;;;;;;;;;;;28.60;99.20;;;;;;5030224;28;20393;-82
2023/08/11 14:33:41;;;;;;;;;;;28.60;99.80;;;;;;5021636;28;19909;-82
2023/08/11 14:36:06;;;;;;;;;;;28.60;99.80;;;;;;5003673;28;20289;-83
2023/08/11 14:38:32;;;;;;;;;;;28.60;99.90;;;;;;5020547;28;19917;-83
2023/08/11 14:40:57;;;;;;;;;;;28.60;99.90;;;;;;5022279;28;19920;-84
2023/08/11 14:43:23;;;;;;;;;;;28.60;99.90;;;;;;5018954;28;19992;-82
2023/08/11 14:45:48;;;;;;;;;;;28.60;99.20;;;;;;5019794;28;19949;-89
2023/08/11 14:48:16;;;;;;;;;;;28.60;99.20;;;;;;5001429;28;20032;-89
2023/08/11 14:50:42;;;;;;;;;;;28.60;99.10;;;;;;5017662;28;20004;-87
2023/08/11 14:53:08;;;;;;;;;;;28.60;98.90;;;;;;5001313;28;19913;-87
2023/08/11 14:55:33;;;;;;;;;;;28.60;99.50;;;;;;5018520;28;19956;-88
2023/08/11 14:58:03;;;;;;;;;;;28.60;99.80;;;;;;5001181;28;19981;-88
2023/08/11 15:00:29;;;;;;;;;;;28.60;99.40;;;;;;5000961;28;19914;-91
2023/08/11 15:02:54;;;;;;;;;;;28.60;99.80;;;;;;5018525;28;19996;-88
2023/08/11 15:05:20;;;;;;;;;;;28.60;99.90;;;;;;5001082;28;19918;-87
2023/08/11 15:07:46;;;;;;;;;;;28.60;99.90;;;;;;4992093;28;19965;-88
2023/08/11 15:10:11;;;;;;;;;;;28.60;99.90;;;;;;5000536;28;19914;-88
2023/08/11 15:12:37;;;;;;;;;;;28.60;99.90;;;;;;5001105;28;19914;-88
2023/08/11 15:15:03;;;;;;;;;;;28.50;99.80;;;;;;5014613;28;19909;-87
2023/08/11 15:17:34;;;;;;;;;;;28.50;99.30;;;;;;4998696;28;19913;-87
2023/08/11 15:19:59;;;;;;;;;;;28.50;99.60;;;;;;5004692;28;20366;-87
2023/08/11 15:22:25;;;;;;;;;;;28.50;99.90;;;;;;4989121;28;19914;-87